Time;durP1;ratioP1;P1;durP2;ratioP2;P2;SDS_P1;SDS_P2;PMS_P1;PMS_P2;Temp;Humidity;BMP_temperature;BMP_pressure;BME280_temperature;BME280_humidity;BME280_pressure;Samples;Min_cycle;Max_cycle;Signal;HPM_P1;HPM_P2
2021/06/22 18:37:38;;;;;;;;;11.00;9.67;;;;;23.93;59.63;101172.81;5013036;27;45674;-59
2021/06/22 18:40:08;;;;;;;;;18.67;16.33;;;;;23.57;53.52;101170.50;4993648;27;45448;-58
2021/06/22 18:42:33;;;;;;;;;18.33;15.33;;;;;22.62;54.42;101170.16;4991813;27;45643;-59
2021/06/22 18:44:59;;;;;;;;;18.33;17.67;;;;;21.65;55.26;101179.69;4991631;27;59536;-57
2021/06/22 18:47:25;;;;;;;;;16.67;15.33;;;;;20.76;56.17;101179.56;4991384;27;54817;-58
2021/06/22 18:49:50;;;;;;;;;20.67;18.67;;;;;20.01;60.75;101179.78;5024748;27;45377;-48
2021/06/22 18:52:16;;;;;;;;;20.67;18.67;;;;;19.42;58.97;101178.34;4995560;27;57641;-58
2021/06/22 18:54:41;;;;;;;;;21.33;19.33;;;;;18.95;59.48;101183.31;4987133;28;69256;-59
2021/06/22 18:57:07;;;;;;;;;21.67;21.33;;;;;18.58;60.29;101194.75;4991760;28;45436;-60
2021/06/22 18:59:33;;;;;;;;;21.67;18.67;;;;;18.24;61.31;101182.31;4991269;27;45429;-59
2021/06/22 19:01:58;;;;;;;;;19.00;17.67;;;;;17.97;61.34;101190.47;5004038;27;57827;-60
2021/06/22 19:04:23;;;;;;;;;23.00;22.67;;;;;17.72;62.33;101184.97;5000068;27;45436;-59
2021/06/22 19:06:49;;;;;;;;;22.67;21.33;;;;;17.50;62.83;101185.22;4990661;27;60492;-59
2021/06/22 19:09:14;;;;;;;;;20.33;19.33;;;;;17.31;63.75;101186.91;4990640;28;64615;-57
2021/06/22 19:11:40;;;;;;;;;23.67;21.33;;;;;17.12;64.20;101194.78;5034870;27;45382;-58
2021/06/22 19:14:05;;;;;;;;;21.33;20.00;;;;;16.95;64.90;101189.81;5002741;27;48985;-55
2021/06/22 19:16:31;;;;;;;;;24.00;23.33;;;;;16.77;68.74;101193.09;4995448;27;45873;-56
2021/06/22 19:18:56;;;;;;;;;27.00;23.67;;;;;16.68;65.77;101195.16;4998964;27;45321;-51
2021/06/22 19:21:22;;;;;;;;;25.00;23.00;;;;;16.57;66.17;101199.25;5039673;27;45228;-58
2021/06/22 19:23:47;;;;;;;;;24.00;20.67;;;;;16.50;66.26;101201.94;5004276;27;45270;-55
2021/06/22 19:26:12;;;;;;;;;25.67;25.33;;;;;16.41;66.76;101211.19;5028806;27;45265;-57
2021/06/22 19:28:38;;;;;;;;;31.33;29.33;;;;;16.32;67.22;101213.22;5053086;27;53937;-57
2021/06/22 19:31:03;;;;;;;;;29.33;26.67;;;;;16.21;66.93;101214.63;5012572;27;46185;-55
2021/06/22 19:33:29;;;;;;;;;36.33;33.67;;;;;16.11;67.20;101206.97;4996569;27;45495;-57
2021/06/22 19:35:55;;;;;;;;;42.00;35.00;;;;;16.05;67.23;101214.94;5011023;27;46094;-58
2021/06/22 19:38:20;;;;;;;;;40.67;34.33;;;;;15.99;67.68;101213.91;5029501;27;45632;-52
2021/06/22 19:40:46;;;;;;;;;33.00;31.67;;;;;15.94;67.90;101206.44;5013581;27;45398;-55
2021/06/22 19:43:11;;;;;;;;;38.67;35.00;;;;;15.90;67.83;101211.34;5031718;27;64384;-55
2021/06/22 19:45:36;;;;;;;;;42.67;37.00;;;;;15.86;67.79;101210.09;4990781;27;47670;-57
2021/06/22 19:48:02;;;;;;;;;33.67;33.00;;;;;15.82;68.27;101213.34;4982823;28;45362;-54
2021/06/22 19:50:27;;;;;;;;;42.67;34.67;;;;;15.79;68.29;101214.59;4978019;28;45342;-54
2021/06/22 19:52:53;;;;;;;;;38.00;35.00;;;;;15.77;68.57;101211.28;4978054;28;45425;-55
2021/06/22 19:55:18;;;;;;;;;50.00;39.00;;;;;15.74;68.65;101222.38;4977498;28;46009;-55
2021/06/22 19:57:44;;;;;;;;;40.67;38.00;;;;;15.74;68.49;101225.91;4978385;28;45379;-52
2021/06/22 20:00:10;;;;;;;;;38.33;36.00;;;;;15.74;68.34;101225.06;4977619;28;45377;-57
2021/06/22 20:02:35;;;;;;;;;39.67;36.00;;;;;15.71;68.67;101223.59;4977628;28;45519;-60
2021/06/22 20:05:01;;;;;;;;;36.67;32.00;;;;;15.71;68.65;101220.13;4976724;28;65225;-59
2021/06/22 20:07:26;;;;;;;;;41.67;35.67;;;;;15.69;68.63;101235.56;4977493;28;45404;-59
2021/06/22 20:09:52;;;;;;;;;43.00;37.67;;;;;15.66;68.45;101239.47;4977662;28;45582;-58
2021/06/22 20:12:17;;;;;;;;;28.00;26.33;;;;;15.65;69.10;101238.63;4976950;28;62624;-58
2021/06/22 20:14:48;;;;;;;;;48.00;39.33;;;;;15.67;68.93;101246.47;4977708;28;46231;-55
2021/06/22 20:17:17;;;;;;;;;47.33;38.33;;;;;15.68;69.21;101253.47;4977349;28;45902;-54
2021/06/22 20:19:42;;;;;;;;;44.00;40.00;;;;;15.67;68.82;101253.66;4977497;28;45244;-56
2021/06/22 20:22:08;;;;;;;;;41.00;35.67;;;;;15.65;68.92;101251.19;4977045;28;45252;-56
2021/06/22 20:24:33;;;;;;;;;45.33;38.00;;;;;15.62;69.34;101246.22;4976738;28;65188;-55
2021/06/22 20:26:58;;;;;;;;;38.67;35.33;;;;;15.61;69.10;101248.09;4977239;28;60140;-57
2021/06/22 20:29:24;;;;;;;;;46.67;37.00;;;;;15.59;69.21;101254.66;4977244;28;54894;-57
2021/06/22 20:31:51;;;;;;;;;35.67;35.33;;;;;15.57;69.06;101256.69;4976943;28;55111;-55
2021/06/22 20:34:17;;;;;;;;;36.00;34.00;;;;;15.53;69.63;101259.78;4977642;28;46303;-55
2021/06/22 20:36:43;;;;;;;;;36.33;33.00;;;;;15.53;69.48;101258.94;4976827;28;45313;-54
2021/06/22 20:39:08;;;;;;;;;38.67;36.00;;;;;15.51;69.59;101267.16;4976899;28;45284;-59
2021/06/22 20:41:34;;;;;;;;;39.00;35.67;;;;;15.50;69.69;101264.69;4993335;28;45584;-60
2021/06/22 20:43:59;;;;;;;;;38.67;32.67;;;;;15.49;70.86;101274.59;4976957;28;56117;-64
2021/06/22 20:46:26;;;;;;;;;38.33;34.00;;;;;15.61;71.22;101280.22;4983356;28;60290;-60
2021/06/22 20:52:39;;;;;;;;;42.00;35.33;;;;;15.71;70.69;101279.06;5099335;27;45826;-60
2021/06/22 20:55:05;;;;;;;;;43.00;37.67;;;;;15.75;70.23;101281.13;5089657;27;45491;-60
2021/06/22 20:57:30;;;;;;;;;43.33;35.67;;;;;15.82;70.09;101283.88;5084753;27;45449;-60
2021/06/22 20:59:56;;;;;;;;;46.67;38.67;;;;;15.88;70.11;101283.09;5080974;27;63113;-61
2021/06/22 21:02:23;;;;;;;;;43.67;37.33;;;;;15.94;70.01;101286.84;5085293;27;46020;-61
2021/06/22 21:04:48;;;;;;;;;39.00;32.67;;;;;16.00;69.86;101296.81;5090377;27;45342;-60
2021/06/22 21:07:14;;;;;;;;;43.00;38.00;;;;;16.05;69.66;101282.81;5083738;27;52765;-60
2021/06/22 21:09:39;;;;;;;;;42.00;35.00;;;;;16.11;69.73;101286.56;5090653;27;56349;-59
2021/06/22 21:12:05;;;;;;;;;45.00;35.00;;;;;16.16;69.45;101292.13;5079348;27;67064;-59
2021/06/22 21:14:30;;;;;;;;;39.67;35.33;;;;;16.20;69.08;101297.94;5085810;27;45417;-60
2021/06/22 21:16:55;;;;;;;;;41.00;38.00;;;;;16.23;69.07;101300.22;5091747;27;50766;-59
2021/06/22 21:19:21;;;;;;;;;41.67;38.33;;;;;16.25;69.15;101301.69;5086316;27;60808;-60
2021/06/22 21:21:46;;;;;;;;;43.00;37.00;;;;;16.27;69.17;101305.00;5094808;27;46061;-60
2021/06/22 21:24:12;;;;;;;;;39.67;35.67;;;;;16.28;68.89;101306.66;5089658;27;45362;-60
2021/06/22 21:26:37;;;;;;;;;44.33;36.00;;;;;16.33;69.03;101310.59;5085566;27;48479;-60
2021/06/22 21:29:04;;;;;;;;;42.33;35.33;;;;;16.34;69.05;101314.94;5094616;27;45892;-60
2021/06/22 21:31:30;;;;;;;;;43.00;38.67;;;;;16.36;68.79;101318.22;5092944;27;46053;-60
2021/06/22 21:33:55;;;;;;;;;41.67;35.00;;;;;16.37;68.66;101315.34;5090124;27;45306;-60
2021/06/22 21:36:20;;;;;;;;;43.33;36.00;;;;;16.38;68.73;101313.50;5086715;27;48289;-60
2021/06/22 21:38:46;;;;;;;;;38.67;34.67;;;;;16.39;68.93;101313.31;5089971;27;47254;-60
2021/06/22 21:41:11;;;;;;;;;38.67;36.00;;;;;16.41;68.65;101319.28;5085723;27;45526;-60
2021/06/22 21:43:37;;;;;;;;;38.00;35.33;;;;;16.42;68.55;101325.50;5089455;27;65477;-60
2021/06/22 21:46:02;;;;;;;;;43.00;36.00;;;;;16.41;68.57;101326.53;5085608;27;45324;-60
2021/06/22 21:48:28;;;;;;;;;43.67;37.00;;;;;16.41;68.54;101327.34;5091877;27;45549;-59
2021/06/22 21:50:53;;;;;;;;;41.67;36.00;;;;;16.41;68.56;101327.34;5089063;27;53234;-59
2021/06/22 21:53:20;;;;;;;;;44.00;37.00;;;;;16.42;68.66;101338.91;5089245;27;62290;-59
2021/06/22 21:55:45;;;;;;;;;43.00;36.33;;;;;16.42;68.54;101330.84;5084987;27;45371;-59
2021/06/22 21:58:11;;;;;;;;;43.33;38.00;;;;;16.43;68.69;101323.66;5094434;27;45615;-60
2021/06/22 22:00:36;;;;;;;;;36.67;35.67;;;;;16.44;68.93;101330.66;5082758;27;46226;-60
2021/06/22 22:03:04;;;;;;;;;53.00;40.00;;;;;16.45;68.78;101332.31;5077954;27;64507;-59
2021/06/22 22:05:30;;;;;;;;;44.67;38.00;;;;;16.44;68.66;101326.13;5074186;28;45328;-59
2021/06/22 22:07:55;;;;;;;;;43.00;38.00;;;;;16.44;68.55;101334.19;5075742;28;45281;-60
2021/06/22 22:10:21;;;;;;;;;41.00;36.00;;;;;16.44;68.75;101331.50;5072011;27;51606;-59
2021/06/22 22:12:46;;;;;;;;;42.00;37.33;;;;;16.45;68.75;101337.66;5080698;28;45317;-59
2021/06/22 22:15:12;;;;;;;;;50.33;41.00;;;;;16.44;68.82;101341.38;5073641;28;54763;-60
2021/06/22 22:17:38;;;;;;;;;45.00;39.00;;;;;16.44;69.07;101330.66;5073557;28;45353;-60
2021/06/22 22:20:05;;;;;;;;;37.67;33.67;;;;;16.45;68.61;101332.31;5072196;28;47413;-60
2021/06/22 22:22:30;;;;;;;;;52.33;40.00;;;;;16.45;68.60;101333.13;5105612;27;45378;-59
2021/06/22 22:24:56;;;;;;;;;39.00;34.00;;;;;16.46;69.14;101342.84;5079203;28;45865;-59
2021/06/22 22:27:21;;;;;;;;;41.33;37.00;;;;;16.46;68.91;101348.19;5071448;28;66924;-59
2021/06/22 22:29:48;;;;;;;;;39.67;33.00;;;;;16.47;68.79;101341.00;5076489;27;66014;-60
2021/06/22 22:32:13;;;;;;;;;47.00;38.00;;;;;16.47;69.16;101339.16;5078936;28;45501;-59
2021/06/22 22:34:39;;;;;;;;;47.67;39.67;;;;;16.47;68.58;101341.00;5075257;28;56184;-60
2021/06/22 22:37:04;;;;;;;;;42.33;36.33;;;;;16.47;68.77;101346.34;5069359;27;60961;-59
2021/06/22 22:39:30;;;;;;;;;42.33;36.33;;;;;16.47;68.55;101346.34;5075491;28;47124;-59
2021/06/22 22:41:55;;;;;;;;;44.00;37.00;;;;;16.47;68.88;101338.31;5071568;27;45670;-59
2021/06/22 22:44:21;;;;;;;;;48.33;37.67;;;;;16.49;68.44;101345.13;5077186;28;58236;-59
2021/06/22 22:46:46;;;;;;;;;51.00;38.00;;;;;16.49;68.80;101338.94;5069000;28;45502;-60
2021/06/22 22:49:11;;;;;;;;;42.33;37.00;;;;;16.47;68.79;101339.16;5079124;28;68778;-60
2021/06/22 22:51:37;;;;;;;;;44.00;39.00;;;;;16.48;68.42;101340.78;5070601;28;45566;-60
2021/06/22 22:54:02;;;;;;;;;36.00;34.33;;;;;16.47;68.79;101343.69;5067207;27;60695;-59
2021/06/22 22:56:28;;;;;;;;;42.33;38.00;;;;;16.48;68.91;101337.28;5078240;28;45476;-60
2021/06/22 22:58:53;;;;;;;;;47.00;41.33;;;;;16.48;69.00;101346.16;5070673;28;67465;-59
2021/06/22 23:01:18;;;;;;;;;41.33;38.33;;;;;16.47;68.69;101355.25;5072811;28;60571;-60
2021/06/22 23:03:44;;;;;;;;;46.00;39.67;;;;;16.48;68.67;101359.56;5068722;28;45218;-60
2021/06/22 23:06:09;;;;;;;;;45.67;39.67;;;;;16.46;68.64;101358.13;5078207;28;45377;-59
2021/06/22 23:08:35;;;;;;;;;44.67;39.00;;;;;16.46;69.03;101353.56;5070391;28;46114;-60
2021/06/22 23:11:00;;;;;;;;;47.00;38.67;;;;;16.45;68.70;101353.75;5075097;28;58981;-60
2021/06/22 23:13:25;;;;;;;;;50.00;41.67;;;;;16.45;69.66;101362.66;5073746;28;45689;-59
2021/06/22 23:15:51;;;;;;;;;48.67;40.33;;;;;16.47;68.68;101362.47;5069933;28;59293;-59
2021/06/22 23:18:16;;;;;;;;;46.33;38.00;;;;;16.46;68.92;101366.16;5073871;27;45388;-59
2021/06/22 23:20:41;;;;;;;;;42.33;38.00;;;;;16.45;69.00;101357.28;5068277;28;56177;-59
2021/06/22 23:23:07;;;;;;;;;46.67;39.00;;;;;16.45;69.31;101361.81;5070334;28;59682;-60
2021/06/22 23:25:32;;;;;;;;;44.00;38.33;;;;;16.45;69.19;101369.88;5078153;28;58637;-59
2021/06/22 23:27:58;;;;;;;;;47.33;38.33;;;;;16.43;69.33;101364.69;5070739;28;63245;-59
2021/06/22 23:30:23;;;;;;;;;47.00;41.33;;;;;16.43;68.93;101361.19;5081661;27;62615;-59
2021/06/22 23:32:48;;;;;;;;;49.00;39.00;;;;;16.41;68.87;101356.84;5072864;27;45523;-60
2021/06/22 23:35:14;;;;;;;;;44.00;38.33;;;;;16.39;69.22;101358.91;5073840;28;68367;-59
2021/06/22 23:37:39;;;;;;;;;53.00;41.33;;;;;16.39;69.14;101350.88;5069655;28;61926;-59
2021/06/22 23:40:05;;;;;;;;;45.67;38.67;;;;;16.39;69.28;101348.19;5074508;27;62131;-59
2021/06/22 23:42:31;;;;;;;;;46.67;40.33;;;;;16.39;69.83;101353.53;5073446;28;45387;-59
2021/06/22 23:44:56;;;;;;;;;52.33;44.33;;;;;16.40;69.85;101351.69;5074956;27;57045;-59
2021/06/22 23:47:21;;;;;;;;;54.33;42.67;;;;;16.39;69.76;101352.72;5074275;28;45268;-59
2021/06/22 23:49:47;;;;;;;;;44.33;39.00;;;;;16.37;69.67;101352.91;5067575;28;49698;-59
2021/06/22 23:52:12;;;;;;;;;53.67;44.00;;;;;16.37;69.83;101344.84;5074604;28;52841;-59
2021/06/22 23:54:37;;;;;;;;;51.33;40.00;;;;;16.35;70.07;101344.25;5078310;28;59118;-59
2021/06/22 23:57:03;;;;;;;;;45.67;40.00;;;;;16.36;69.76;101339.69;5079736;28;56045;-59
2021/06/22 23:59:29;;;;;;;;;46.33;38.00;;;;;16.35;69.81;101341.56;5080157;27;45274;-59
